sensor_id;sensor_type;location;lat;lon;timestamp;temperature;humidity
43858;DHT22;29507;51.284;5.758;2023-08-31T00:01:49;10.80;99.90
43858;DHT22;29507;51.284;5.758;2023-08-31T00:04:15;10.80;99.90
43858;DHT22;29507;51.284;5.758;2023-08-31T00:06:41;10.90;99.90
43858;DHT22;29507;51.284;5.758;2023-08-31T00:09:07;10.90;99.90
43858;DHT22;29507;51.284;5.758;2023-08-31T00:11:35;10.90;99.90
43858;DHT22;29507;51.284;5.758;2023-08-31T00:14:01;10.80;99.90
43858;DHT22;29507;51.284;5.758;2023-08-31T00:16:27;10.80;99.90
43858;DHT22;29507;51.284;5.758;2023-08-31T00:18:53;10.80;99.90
43858;DHT22;29507;51.284;5.758;2023-08-31T00:21:21;10.80;99.90
43858;DHT22;29507;51.284;5.758;2023-08-31T00:23:46;10.80;99.90
43858;DHT22;29507;51.284;5.758;2023-08-31T00:26:12;10.80;99.90
43858;DHT22;29507;51.284;5.758;2023-08-31T00:28:38;10.70;99.90
43858;DHT22;29507;51.284;5.758;2023-08-31T00:31:04;10.70;99.90
43858;DHT22;29507;51.284;5.758;2023-08-31T00:33:30;10.70;99.90
43858;DHT22;29507;51.284;5.758;2023-08-31T00:35:58;10.60;99.90
43858;DHT22;29507;51.284;5.758;2023-08-31T00:38:27;10.50;99.90
43858;DHT22;29507;51.284;5.758;2023-08-31T00:40:52;10.60;99.90
43858;DHT22;29507;51.284;5.758;2023-08-31T00:43:19;10.50;99.90
43858;DHT22;29507;51.284;5.758;2023-08-31T00:45:49;10.50;99.90
43858;DHT22;29507;51.284;5.758;2023-08-31T00:48:16;10.60;99.90
43858;DHT22;29507;51.284;5.758;2023-08-31T00:50:46;10.50;99.90
43858;DHT22;29507;51.284;5.758;2023-08-31T00:53:12;10.60;99.90
43858;DHT22;29507;51.284;5.758;2023-08-31T00:55:38;10.60;99.90
43858;DHT22;29507;51.284;5.758;2023-08-31T00:58:07;10.50;99.90
43858;DHT22;29507;51.284;5.758;2023-08-31T01:01:01;10.50;99.90
43858;DHT22;29507;51.284;5.758;2023-08-31T01:03:35;10.50;99.90
43858;DHT22;29507;51.284;5.758;2023-08-31T01:06:13;10.50;99.90
43858;DHT22;29507;51.284;5.758;2023-08-31T01:11:45;10.50;99.90
43858;DHT22;29507;51.284;5.758;2023-08-31T01:14:18;10.50;99.90
43858;DHT22;29507;51.284;5.758;2023-08-31T01:16:48;10.50;99.90
43858;DHT22;29507;51.284;5.758;2023-08-31T01:24:53;10.50;99.90
43858;DHT22;29507;51.284;5.758;2023-08-31T01:27:19;10.60;99.90
43858;DHT22;29507;51.284;5.758;2023-08-31T01:29:45;10.60;99.90
43858;DHT22;29507;51.284;5.758;2023-08-31T01:32:11;10.60;99.90
43858;DHT22;29507;51.284;5.758;2023-08-31T01:34:36;10.60;99.90
43858;DHT22;29507;51.284;5.758;2023-08-31T01:37:08;10.60;99.90
43858;DHT22;29507;51.284;5.758;2023-08-31T01:39:45;10.50;99.90
43858;DHT22;29507;51.284;5.758;2023-08-31T01:42:13;10.50;99.90
43858;DHT22;29507;51.284;5.758;2023-08-31T01:44:42;10.50;99.90
43858;DHT22;29507;51.284;5.758;2023-08-31T01:47:09;10.40;99.90
43858;DHT22;29507;51.284;5.758;2023-08-31T01:49:38;10.40;99.90
43858;DHT22;29507;51.284;5.758;2023-08-31T01:52:04;10.50;99.90
43858;DHT22;29507;51.284;5.758;2023-08-31T01:54:30;10.50;99.90
43858;DHT22;29507;51.284;5.758;2023-08-31T01:56:56;10.40;99.90
43858;DHT22;29507;51.284;5.758;2023-08-31T01:59:22;10.40;99.90
43858;DHT22;29507;51.284;5.758;2023-08-31T02:01:47;10.40;99.90
43858;DHT22;29507;51.284;5.758;2023-08-31T02:04:13;10.40;99.90
43858;DHT22;29507;51.284;5.758;2023-08-31T02:06:39;10.40;99.90
43858;DHT22;29507;51.284;5.758;2023-08-31T02:09:05;10.30;99.90
43858;DHT22;29507;51.284;5.758;2023-08-31T02:11:31;10.40;99.90
43858;DHT22;29507;51.284;5.758;2023-08-31T02:14:06;10.30;99.90
43858;DHT22;29507;51.284;5.758;2023-08-31T02:16:33;10.30;99.90
43858;DHT22;29507;51.284;5.758;2023-08-31T02:18:59;10.20;99.90
43858;DHT22;29507;51.284;5.758;2023-08-31T02:21:25;10.10;99.90
43858;DHT22;29507;51.284;5.758;2023-08-31T02:23:50;10.10;99.90
43858;DHT22;29507;51.284;5.758;2023-08-31T02:26:16;10.10;99.90
43858;DHT22;29507;51.284;5.758;2023-08-31T02:28:42;10.10;99.90
43858;DHT22;29507;51.284;5.758;2023-08-31T02:31:09;10.10;99.90
43858;DHT22;29507;51.284;5.758;2023-08-31T02:33:35;10.10;99.90
43858;DHT22;29507;51.284;5.758;2023-08-31T02:36:00;10.10;99.90
43858;DHT22;29507;51.284;5.758;2023-08-31T02:38:26;10.00;99.90
43858;DHT22;29507;51.284;5.758;2023-08-31T02:40:52;10.00;99.90
43858;DHT22;29507;51.284;5.758;2023-08-31T02:43:17;10.00;99.90
43858;DHT22;29507;51.284;5.758;2023-08-31T02:45:43;10.10;99.90
43858;DHT22;29507;51.284;5.758;2023-08-31T02:48:09;10.10;99.90
43858;DHT22;29507;51.284;5.758;2023-08-31T02:50:35;10.10;99.90
43858;DHT22;29507;51.284;5.758;2023-08-31T02:53:01;10.10;99.90
43858;DHT22;29507;51.284;5.758;2023-08-31T02:55:27;10.10;99.90
43858;DHT22;29507;51.284;5.758;2023-08-31T02:57:53;10.10;99.90
43858;DHT22;29507;51.284;5.758;2023-08-31T03:00:19;10.10;99.90
43858;DHT22;29507;51.284;5.758;2023-08-31T03:02:47;10.10;99.90
43858;DHT22;29507;51.284;5.758;2023-08-31T03:05:13;10.10;99.90
43858;DHT22;29507;51.284;5.758;2023-08-31T03:07:39;10.10;99.90
43858;DHT22;29507;51.284;5.758;2023-08-31T03:10:05;10.00;99.90
43858;DHT22;29507;51.284;5.758;2023-08-31T03:12:31;10.00;99.90
43858;DHT22;29507;51.284;5.758;2023-08-31T03:14:56;10.00;99.90
43858;DHT22;29507;51.284;5.758;2023-08-31T03:17:22;10.00;99.90
43858;DHT22;29507;51.284;5.758;2023-08-31T03:19:49;10.00;99.90
43858;DHT22;29507;51.284;5.758;2023-08-31T03:22:14;10.00;99.90
43858;DHT22;29507;51.284;5.758;2023-08-31T03:24:40;10.00;99.90
43858;DHT22;29507;51.284;5.758;2023-08-31T03:27:05;10.00;99.90
43858;DHT22;29507;51.284;5.758;2023-08-31T03:29:31;9.90;99.90
43858;DHT22;29507;51.284;5.758;2023-08-31T03:31:59;9.90;99.90
43858;DHT22;29507;51.284;5.758;2023-08-31T03:34:29;10.00;99.90
43858;DHT22;29507;51.284;5.758;2023-08-31T03:36:56;10.00;99.90
43858;DHT22;29507;51.284;5.758;2023-08-31T03:39:21;9.90;99.90
43858;DHT22;29507;51.284;5.758;2023-08-31T03:41:47;9.90;99.90
43858;DHT22;29507;51.284;5.758;2023-08-31T03:44:13;10.00;99.90
43858;DHT22;29507;51.284;5.758;2023-08-31T03:46:38;10.00;99.90
43858;DHT22;29507;51.284;5.758;2023-08-31T03:49:04;10.00;99.90
43858;DHT22;29507;51.284;5.758;2023-08-31T03:51:30;10.00;99.90
43858;DHT22;29507;51.284;5.758;2023-08-31T03:53:55;9.90;99.90
43858;DHT22;29507;51.284;5.758;2023-08-31T03:56:22;9.90;99.90
43858;DHT22;29507;51.284;5.758;2023-08-31T03:58:48;9.90;99.90
43858;DHT22;29507;51.284;5.758;2023-08-31T04:01:13;10.00;99.90
43858;DHT22;29507;51.284;5.758;2023-08-31T04:03:41;10.00;99.90
43858;DHT22;29507;51.284;5.758;2023-08-31T04:06:07;9.90;99.90
43858;DHT22;29507;51.284;5.758;2023-08-31T04:08:32;10.00;99.90
43858;DHT22;29507;51.284;5.758;2023-08-31T04:10:58;10.00;99.90
43858;DHT22;29507;51.284;5.758;2023-08-31T04:13:24;10.00;99.90
43858;DHT22;29507;51.284;5.758;2023-08-31T04:15:51;10.00;99.90
43858;DHT22;29507;51.284;5.758;2023-08-31T04:18:17;10.10;99.90
43858;DHT22;29507;51.284;5.758;2023-08-31T04:20:50;10.00;99.90
43858;DHT22;29507;51.284;5.758;2023-08-31T04:23:17;10.10;99.90
43858;DHT22;29507;51.284;5.758;2023-08-31T04:25:43;10.10;99.90
43858;DHT22;29507;51.284;5.758;2023-08-31T04:28:08;10.00;99.90
43858;DHT22;29507;51.284;5.758;2023-08-31T04:30:34;10.00;99.90
43858;DHT22;29507;51.284;5.758;2023-08-31T04:33:00;10.00;99.90
43858;DHT22;29507;51.284;5.758;2023-08-31T04:35:26;10.00;99.90
43858;DHT22;29507;51.284;5.758;2023-08-31T04:37:52;9.90;99.90
43858;DHT22;29507;51.284;5.758;2023-08-31T04:40:18;9.90;99.90
43858;DHT22;29507;51.284;5.758;2023-08-31T04:42:44;9.90;99.90
43858;DHT22;29507;51.284;5.758;2023-08-31T04:45:10;9.90;99.90
43858;DHT22;29507;51.284;5.758;2023-08-31T04:47:36;10.00;99.90
43858;DHT22;29507;51.284;5.758;2023-08-31T04:50:02;10.00;99.90
43858;DHT22;29507;51.284;5.758;2023-08-31T04:52:29;9.90;99.90
43858;DHT22;29507;51.284;5.758;2023-08-31T04:54:54;10.00;99.90
43858;DHT22;29507;51.284;5.758;2023-08-31T04:57:20;10.10;99.90
43858;DHT22;29507;51.284;5.758;2023-08-31T04:59:46;10.00;99.90
43858;DHT22;29507;51.284;5.758;2023-08-31T05:02:12;10.00;99.90
43858;DHT22;29507;51.284;5.758;2023-08-31T05:04:37;10.10;99.90
43858;DHT22;29507;51.284;5.758;2023-08-31T05:07:03;10.10;99.90
43858;DHT22;29507;51.284;5.758;2023-08-31T05:09:29;10.10;99.90
43858;DHT22;29507;51.284;5.758;2023-08-31T05:11:58;10.10;99.90
43858;DHT22;29507;51.284;5.758;2023-08-31T05:14:24;10.20;99.90
43858;DHT22;29507;51.284;5.758;2023-08-31T05:16:50;10.20;99.90
43858;DHT22;29507;51.284;5.758;2023-08-31T05:19:16;10.20;99.90
43858;DHT22;29507;51.284;5.758;2023-08-31T05:21:41;10.20;99.90
43858;DHT22;29507;51.284;5.758;2023-08-31T05:24:07;10.20;99.90
43858;DHT22;29507;51.284;5.758;2023-08-31T05:26:33;10.20;99.90
43858;DHT22;29507;51.284;5.758;2023-08-31T05:28:58;10.30;99.90
43858;DHT22;29507;51.284;5.758;2023-08-31T05:31:24;10.30;99.90
43858;DHT22;29507;51.284;5.758;2023-08-31T05:33:50;10.40;99.90
43858;DHT22;29507;51.284;5.758;2023-08-31T05:36:15;10.40;99.90
43858;DHT22;29507;51.284;5.758;2023-08-31T05:38:41;10.50;99.90
43858;DHT22;29507;51.284;5.758;2023-08-31T05:41:07;10.50;99.90
43858;DHT22;29507;51.284;5.758;2023-08-31T05:43:34;10.50;99.90
43858;DHT22;29507;51.284;5.758;2023-08-31T05:46:00;10.60;99.90
43858;DHT22;29507;51.284;5.758;2023-08-31T05:48:26;10.60;99.90
43858;DHT22;29507;51.284;5.758;2023-08-31T05:50:52;10.70;99.90
43858;DHT22;29507;51.284;5.758;2023-08-31T05:53:17;10.70;99.90
43858;DHT22;29507;51.284;5.758;2023-08-31T05:55:43;10.80;99.90
43858;DHT22;29507;51.284;5.758;2023-08-31T05:58:08;10.80;99.90
43858;DHT22;29507;51.284;5.758;2023-08-31T06:00:34;10.90;99.90
43858;DHT22;29507;51.284;5.758;2023-08-31T06:03:01;10.90;99.90
43858;DHT22;29507;51.284;5.758;2023-08-31T06:05:28;11.00;99.90
43858;DHT22;29507;51.284;5.758;2023-08-31T06:07:57;11.10;99.90
43858;DHT22;29507;51.284;5.758;2023-08-31T06:10:22;11.20;99.90
43858;DHT22;29507;51.284;5.758;2023-08-31T06:12:49;11.20;99.90
43858;DHT22;29507;51.284;5.758;2023-08-31T06:15:16;11.30;99.90
43858;DHT22;29507;51.284;5.758;2023-08-31T06:17:42;11.40;99.90
43858;DHT22;29507;51.284;5.758;2023-08-31T06:20:08;11.50;99.90
43858;DHT22;29507;51.284;5.758;2023-08-31T06:22:34;11.50;99.90
43858;DHT22;29507;51.284;5.758;2023-08-31T06:25:00;11.60;99.90
43858;DHT22;29507;51.284;5.758;2023-08-31T06:27:26;11.70;99.90
43858;DHT22;29507;51.284;5.758;2023-08-31T06:29:52;11.80;99.90
43858;DHT22;29507;51.284;5.758;2023-08-31T06:32:18;11.90;99.90
43858;DHT22;29507;51.284;5.758;2023-08-31T06:34:44;12.00;99.90
43858;DHT22;29507;51.284;5.758;2023-08-31T06:37:10;12.10;99.90
43858;DHT22;29507;51.284;5.758;2023-08-31T06:39:36;12.20;99.90
43858;DHT22;29507;51.284;5.758;2023-08-31T06:42:02;12.30;99.90
43858;DHT22;29507;51.284;5.758;2023-08-31T06:44:29;12.40;99.90
43858;DHT22;29507;51.284;5.758;2023-08-31T06:46:55;12.50;99.90
43858;DHT22;29507;51.284;5.758;2023-08-31T06:49:22;12.80;99.90
43858;DHT22;29507;51.284;5.758;2023-08-31T06:51:49;13.60;99.90
43858;DHT22;29507;51.284;5.758;2023-08-31T06:54:14;14.30;99.90
43858;DHT22;29507;51.284;5.758;2023-08-31T06:56:40;14.80;99.90
43858;DHT22;29507;51.284;5.758;2023-08-31T06:59:06;15.30;99.90
43858;DHT22;29507;51.284;5.758;2023-08-31T07:01:31;15.80;99.90
43858;DHT22;29507;51.284;5.758;2023-08-31T07:03:58;16.20;99.90
43858;DHT22;29507;51.284;5.758;2023-08-31T07:06:24;16.20;99.90
43858;DHT22;29507;51.284;5.758;2023-08-31T07:08:49;16.20;99.90
43858;DHT22;29507;51.284;5.758;2023-08-31T07:11:17;16.30;99.90
43858;DHT22;29507;51.284;5.758;2023-08-31T07:13:43;16.20;99.90
43858;DHT22;29507;51.284;5.758;2023-08-31T07:16:08;16.20;99.90
43858;DHT22;29507;51.284;5.758;2023-08-31T07:18:35;16.30;99.90
43858;DHT22;29507;51.284;5.758;2023-08-31T07:21:01;16.60;99.90
43858;DHT22;29507;51.284;5.758;2023-08-31T07:23:26;16.80;99.90
43858;DHT22;29507;51.284;5.758;2023-08-31T07:25:52;16.90;99.90
43858;DHT22;29507;51.284;5.758;2023-08-31T07:28:23;17.00;99.90
43858;DHT22;29507;51.284;5.758;2023-08-31T07:30:48;17.10;99.90
43858;DHT22;29507;51.284;5.758;2023-08-31T07:33:14;17.20;99.90
43858;DHT22;29507;51.284;5.758;2023-08-31T07:35:40;17.40;99.90
43858;DHT22;29507;51.284;5.758;2023-08-31T07:38:05;17.40;99.90
43858;DHT22;29507;51.284;5.758;2023-08-31T07:40:31;17.50;99.90
43858;DHT22;29507;51.284;5.758;2023-08-31T07:42:57;17.60;99.90
43858;DHT22;29507;51.284;5.758;2023-08-31T07:45:22;17.60;99.90
43858;DHT22;29507;51.284;5.758;2023-08-31T07:47:48;17.70;99.90
43858;DHT22;29507;51.284;5.758;2023-08-31T07:50:14;17.80;99.90
43858;DHT22;29507;51.284;5.758;2023-08-31T07:52:40;17.80;99.90
43858;DHT22;29507;51.284;5.758;2023-08-31T07:55:06;18.00;99.90
43858;DHT22;29507;51.284;5.758;2023-08-31T07:57:31;18.40;99.90
43858;DHT22;29507;51.284;5.758;2023-08-31T07:59:57;18.70;99.90
43858;DHT22;29507;51.284;5.758;2023-08-31T08:02:23;18.80;99.90
43858;DHT22;29507;51.284;5.758;2023-08-31T08:04:48;18.70;99.90
43858;DHT22;29507;51.284;5.758;2023-08-31T08:07:14;18.70;99.90
43858;DHT22;29507;51.284;5.758;2023-08-31T08:09:40;18.80;99.90
43858;DHT22;29507;51.284;5.758;2023-08-31T08:12:05;19.00;99.90
43858;DHT22;29507;51.284;5.758;2023-08-31T08:14:32;19.00;99.90
43858;DHT22;29507;51.284;5.758;2023-08-31T08:16:58;19.00;99.90
43858;DHT22;29507;51.284;5.758;2023-08-31T08:19:24;18.90;99.90
43858;DHT22;29507;51.284;5.758;2023-08-31T08:21:50;18.90;99.90
43858;DHT22;29507;51.284;5.758;2023-08-31T08:24:16;19.10;99.90
43858;DHT22;29507;51.284;5.758;2023-08-31T08:26:43;19.40;99.90
43858;DHT22;29507;51.284;5.758;2023-08-31T08:29:08;19.60;99.90
43858;DHT22;29507;51.284;5.758;2023-08-31T08:31:34;20.00;99.90
43858;DHT22;29507;51.284;5.758;2023-08-31T08:34:00;20.20;99.90
43858;DHT22;29507;51.284;5.758;2023-08-31T08:36:26;20.10;99.90
43858;DHT22;29507;51.284;5.758;2023-08-31T08:38:52;20.20;99.90
43858;DHT22;29507;51.284;5.758;2023-08-31T08:41:23;20.00;99.90
43858;DHT22;29507;51.284;5.758;2023-08-31T08:43:51;20.00;99.90
43858;DHT22;29507;51.284;5.758;2023-08-31T08:46:17;20.20;99.90
43858;DHT22;29507;51.284;5.758;2023-08-31T08:48:44;20.00;99.90
43858;DHT22;29507;51.284;5.758;2023-08-31T08:51:10;19.90;99.90
43858;DHT22;29507;51.284;5.758;2023-08-31T08:53:37;19.80;99.90
43858;DHT22;29507;51.284;5.758;2023-08-31T08:56:04;19.80;99.90
43858;DHT22;29507;51.284;5.758;2023-08-31T08:58:30;19.80;99.90
43858;DHT22;29507;51.284;5.758;2023-08-31T09:00:55;19.90;99.90
43858;DHT22;29507;51.284;5.758;2023-08-31T09:03:24;20.10;99.90
43858;DHT22;29507;51.284;5.758;2023-08-31T09:05:51;20.40;99.90
43858;DHT22;29507;51.284;5.758;2023-08-31T09:08:25;20.50;99.90
43858;DHT22;29507;51.284;5.758;2023-08-31T09:10:51;20.50;99.90
43858;DHT22;29507;51.284;5.758;2023-08-31T09:13:17;20.60;99.90
43858;DHT22;29507;51.284;5.758;2023-08-31T09:15:47;20.90;99.90
43858;DHT22;29507;51.284;5.758;2023-08-31T09:18:16;21.20;99.90
43858;DHT22;29507;51.284;5.758;2023-08-31T09:20:48;21.00;99.90
43858;DHT22;29507;51.284;5.758;2023-08-31T09:23:15;20.90;99.90
43858;DHT22;29507;51.284;5.758;2023-08-31T09:25:44;20.90;99.90
43858;DHT22;29507;51.284;5.758;2023-08-31T09:28:10;20.70;99.90
43858;DHT22;29507;51.284;5.758;2023-08-31T09:30:37;20.60;99.90
43858;DHT22;29507;51.284;5.758;2023-08-31T09:33:10;20.30;99.90
43858;DHT22;29507;51.284;5.758;2023-08-31T09:35:39;20.60;99.90
43858;DHT22;29507;51.284;5.758;2023-08-31T09:38:08;21.00;99.90
43858;DHT22;29507;51.284;5.758;2023-08-31T09:40:36;21.50;99.90
43858;DHT22;29507;51.284;5.758;2023-08-31T09:43:02;21.50;99.90
43858;DHT22;29507;51.284;5.758;2023-08-31T09:45:32;21.40;99.90
43858;DHT22;29507;51.284;5.758;2023-08-31T09:48:02;20.90;99.90
43858;DHT22;29507;51.284;5.758;2023-08-31T09:50:30;20.80;99.90
43858;DHT22;29507;51.284;5.758;2023-08-31T09:53:00;20.90;99.90
43858;DHT22;29507;51.284;5.758;2023-08-31T09:55:28;20.40;99.90
43858;DHT22;29507;51.284;5.758;2023-08-31T09:57:57;20.10;99.90
43858;DHT22;29507;51.284;5.758;2023-08-31T10:00:25;19.70;99.90
43858;DHT22;29507;51.284;5.758;2023-08-31T10:02:53;19.50;99.90
43858;DHT22;29507;51.284;5.758;2023-08-31T10:05:20;20.40;99.90
43858;DHT22;29507;51.284;5.758;2023-08-31T10:07:45;20.80;99.90
43858;DHT22;29507;51.284;5.758;2023-08-31T10:10:12;21.10;99.90
43858;DHT22;29507;51.284;5.758;2023-08-31T10:12:38;20.70;99.90
43858;DHT22;29507;51.284;5.758;2023-08-31T10:15:05;20.20;99.90
43858;DHT22;29507;51.284;5.758;2023-08-31T10:17:31;20.50;99.90
43858;DHT22;29507;51.284;5.758;2023-08-31T10:19:57;21.00;99.90
43858;DHT22;29507;51.284;5.758;2023-08-31T10:22:23;20.50;99.90
43858;DHT22;29507;51.284;5.758;2023-08-31T10:25:02;20.00;99.90
43858;DHT22;29507;51.284;5.758;2023-08-31T10:27:36;19.50;99.90
43858;DHT22;29507;51.284;5.758;2023-08-31T10:30:28;19.10;99.90
43858;DHT22;29507;51.284;5.758;2023-08-31T10:38:32;18.60;99.90
43858;DHT22;29507;51.284;5.758;2023-08-31T10:44:17;20.70;99.90
43858;DHT22;29507;51.284;5.758;2023-08-31T10:46:43;20.40;99.90
43858;DHT22;29507;51.284;5.758;2023-08-31T10:51:36;19.40;99.90
43858;DHT22;29507;51.284;5.758;2023-08-31T10:54:13;19.10;99.90
43858;DHT22;29507;51.284;5.758;2023-08-31T10:59:24;19.50;99.90
43858;DHT22;29507;51.284;5.758;2023-08-31T11:02:00;20.20;99.90
43858;DHT22;29507;51.284;5.758;2023-08-31T11:04:29;20.10;99.90
43858;DHT22;29507;51.284;5.758;2023-08-31T11:07:31;20.50;99.90
43858;DHT22;29507;51.284;5.758;2023-08-31T11:10:26;22.10;99.90
43858;DHT22;29507;51.284;5.758;2023-08-31T11:12:55;22.30;99.90
43858;DHT22;29507;51.284;5.758;2023-08-31T11:15:24;22.50;99.90
43858;DHT22;29507;51.284;5.758;2023-08-31T11:17:52;23.00;99.90
43858;DHT22;29507;51.284;5.758;2023-08-31T11:20:20;22.90;99.50
43858;DHT22;29507;51.284;5.758;2023-08-31T11:22:48;22.30;99.90
43858;DHT22;29507;51.284;5.758;2023-08-31T11:25:20;21.80;99.90
43858;DHT22;29507;51.284;5.758;2023-08-31T11:27:59;21.30;99.90
43858;DHT22;29507;51.284;5.758;2023-08-31T11:30:30;21.10;99.90
43858;DHT22;29507;51.284;5.758;2023-08-31T11:33:06;21.40;98.60
43858;DHT22;29507;51.284;5.758;2023-08-31T11:35:35;21.20;98.50
43858;DHT22;29507;51.284;5.758;2023-08-31T11:38:02;21.70;98.70
43858;DHT22;29507;51.284;5.758;2023-08-31T11:40:29;21.60;98.30
43858;DHT22;29507;51.284;5.758;2023-08-31T11:42:56;21.60;98.70
43858;DHT22;29507;51.284;5.758;2023-08-31T11:45:23;22.20;98.80
43858;DHT22;29507;51.284;5.758;2023-08-31T11:47:49;22.80;96.50
43858;DHT22;29507;51.284;5.758;2023-08-31T11:50:16;23.50;95.60
43858;DHT22;29507;51.284;5.758;2023-08-31T11:52:43;24.40;95.40
43858;DHT22;29507;51.284;5.758;2023-08-31T11:55:12;24.70;93.00
43858;DHT22;29507;51.284;5.758;2023-08-31T11:57:38;24.80;93.70
43858;DHT22;29507;51.284;5.758;2023-08-31T12:00:05;24.60;92.30
43858;DHT22;29507;51.284;5.758;2023-08-31T12:02:37;23.50;93.10
43858;DHT22;29507;51.284;5.758;2023-08-31T12:05:04;23.40;93.40
43858;DHT22;29507;51.284;5.758;2023-08-31T12:07:39;23.80;92.10
43858;DHT22;29507;51.284;5.758;2023-08-31T12:10:09;24.10;91.60
43858;DHT22;29507;51.284;5.758;2023-08-31T12:12:35;24.30;91.50
43858;DHT22;29507;51.284;5.758;2023-08-31T12:15:02;24.50;92.20
43858;DHT22;29507;51.284;5.758;2023-08-31T12:17:31;24.70;92.10
43858;DHT22;29507;51.284;5.758;2023-08-31T12:20:04;24.80;90.90
43858;DHT22;29507;51.284;5.758;2023-08-31T12:22:33;24.70;90.40
43858;DHT22;29507;51.284;5.758;2023-08-31T12:25:00;24.50;90.70
43858;DHT22;29507;51.284;5.758;2023-08-31T12:27:26;24.40;90.80
43858;DHT22;29507;51.284;5.758;2023-08-31T12:29:52;24.70;91.40
43858;DHT22;29507;51.284;5.758;2023-08-31T12:32:17;24.70;90.10
43858;DHT22;29507;51.284;5.758;2023-08-31T12:34:45;24.20;90.10
43858;DHT22;29507;51.284;5.758;2023-08-31T12:37:11;24.50;90.70
43858;DHT22;29507;51.284;5.758;2023-08-31T12:39:37;24.90;90.60
43858;DHT22;29507;51.284;5.758;2023-08-31T12:42:03;25.40;89.70
43858;DHT22;29507;51.284;5.758;2023-08-31T12:44:30;25.70;86.20
43858;DHT22;29507;51.284;5.758;2023-08-31T12:46:56;25.80;85.10
43858;DHT22;29507;51.284;5.758;2023-08-31T12:49:22;26.00;81.70
43858;DHT22;29507;51.284;5.758;2023-08-31T12:51:48;25.70;82.90
43858;DHT22;29507;51.284;5.758;2023-08-31T12:54:16;25.90;82.40
43858;DHT22;29507;51.284;5.758;2023-08-31T12:56:41;26.20;81.90
43858;DHT22;29507;51.284;5.758;2023-08-31T12:59:07;26.00;81.20
43858;DHT22;29507;51.284;5.758;2023-08-31T13:01:33;26.10;80.60
43858;DHT22;29507;51.284;5.758;2023-08-31T13:03:59;26.30;81.60
43858;DHT22;29507;51.284;5.758;2023-08-31T13:06:24;26.00;79.50
43858;DHT22;29507;51.284;5.758;2023-08-31T13:08:52;25.60;79.50
43858;DHT22;29507;51.284;5.758;2023-08-31T13:11:17;25.40;78.50
43858;DHT22;29507;51.284;5.758;2023-08-31T13:13:49;25.10;80.10
43858;DHT22;29507;51.284;5.758;2023-08-31T13:16:16;24.90;80.90
43858;DHT22;29507;51.284;5.758;2023-08-31T13:18:42;24.60;82.30
43858;DHT22;29507;51.284;5.758;2023-08-31T13:21:07;24.00;81.70
43858;DHT22;29507;51.284;5.758;2023-08-31T13:23:33;23.70;82.20
43858;DHT22;29507;51.284;5.758;2023-08-31T13:25:59;23.40;85.00
43858;DHT22;29507;51.284;5.758;2023-08-31T13:28:24;23.00;83.30
43858;DHT22;29507;51.284;5.758;2023-08-31T13:30:55;22.60;85.30
43858;DHT22;29507;51.284;5.758;2023-08-31T13:33:21;22.40;86.50
43858;DHT22;29507;51.284;5.758;2023-08-31T13:35:47;22.30;87.30
43858;DHT22;29507;51.284;5.758;2023-08-31T13:38:12;22.80;86.80
43858;DHT22;29507;51.284;5.758;2023-08-31T13:40:39;23.30;85.90
43858;DHT22;29507;51.284;5.758;2023-08-31T13:43:04;22.80;86.10
43858;DHT22;29507;51.284;5.758;2023-08-31T13:45:30;22.40;86.10
43858;DHT22;29507;51.284;5.758;2023-08-31T13:47:58;22.10;87.40
43858;DHT22;29507;51.284;5.758;2023-08-31T13:50:26;22.10;88.70
43858;DHT22;29507;51.284;5.758;2023-08-31T13:52:52;22.70;90.10
43858;DHT22;29507;51.284;5.758;2023-08-31T13:55:17;22.90;89.70
43858;DHT22;29507;51.284;5.758;2023-08-31T13:57:43;22.40;90.00
43858;DHT22;29507;51.284;5.758;2023-08-31T14:00:10;22.00;90.30
43858;DHT22;29507;51.284;5.758;2023-08-31T14:02:37;21.60;91.20
43858;DHT22;29507;51.284;5.758;2023-08-31T14:05:04;21.30;92.00
43858;DHT22;29507;51.284;5.758;2023-08-31T14:07:30;21.00;92.80
43858;DHT22;29507;51.284;5.758;2023-08-31T14:09:55;20.80;93.40
43858;DHT22;29507;51.284;5.758;2023-08-31T14:12:21;20.60;94.70
43858;DHT22;29507;51.284;5.758;2023-08-31T14:14:47;20.40;96.10
43858;DHT22;29507;51.284;5.758;2023-08-31T14:17:13;20.40;97.10
43858;DHT22;29507;51.284;5.758;2023-08-31T14:19:39;20.60;98.20
43858;DHT22;29507;51.284;5.758;2023-08-31T14:22:05;20.70;99.90
43858;DHT22;29507;51.284;5.758;2023-08-31T14:24:31;20.50;99.90
43858;DHT22;29507;51.284;5.758;2023-08-31T14:26:57;20.50;99.90
43858;DHT22;29507;51.284;5.758;2023-08-31T14:29:23;20.30;99.90
43858;DHT22;29507;51.284;5.758;2023-08-31T14:31:49;20.00;99.90
43858;DHT22;29507;51.284;5.758;2023-08-31T14:34:15;19.40;99.90
43858;DHT22;29507;51.284;5.758;2023-08-31T14:36:40;19.10;99.90
43858;DHT22;29507;51.284;5.758;2023-08-31T14:39:06;18.80;99.90
43858;DHT22;29507;51.284;5.758;2023-08-31T14:41:31;18.60;99.90
43858;DHT22;29507;51.284;5.758;2023-08-31T14:43:57;18.40;99.90
43858;DHT22;29507;51.284;5.758;2023-08-31T14:46:22;18.10;99.90
43858;DHT22;29507;51.284;5.758;2023-08-31T14:48:50;18.00;99.90
43858;DHT22;29507;51.284;5.758;2023-08-31T14:51:16;18.20;99.90
43858;DHT22;29507;51.284;5.758;2023-08-31T14:53:42;18.20;99.90
43858;DHT22;29507;51.284;5.758;2023-08-31T14:56:08;18.30;99.90
43858;DHT22;29507;51.284;5.758;2023-08-31T14:58:34;18.50;99.90
43858;DHT22;29507;51.284;5.758;2023-08-31T15:01:00;18.60;99.90
43858;DHT22;29507;51.284;5.758;2023-08-31T15:03:26;18.50;99.90
43858;DHT22;29507;51.284;5.758;2023-08-31T15:05:51;18.30;99.90
43858;DHT22;29507;51.284;5.758;2023-08-31T15:08:17;18.20;99.90
43858;DHT22;29507;51.284;5.758;2023-08-31T15:10:43;18.10;99.90
43858;DHT22;29507;51.284;5.758;2023-08-31T15:13:09;18.00;99.90
43858;DHT22;29507;51.284;5.758;2023-08-31T15:15:34;17.80;99.90
43858;DHT22;29507;51.284;5.758;2023-08-31T15:18:00;17.70;99.90
43858;DHT22;29507;51.284;5.758;2023-08-31T15:20:26;17.70;99.90
43858;DHT22;29507;51.284;5.758;2023-08-31T15:22:53;17.60;99.90
43858;DHT22;29507;51.284;5.758;2023-08-31T15:25:19;17.60;99.90
43858;DHT22;29507;51.284;5.758;2023-08-31T15:27:44;17.60;99.90
43858;DHT22;29507;51.284;5.758;2023-08-31T15:30:11;17.70;99.90
43858;DHT22;29507;51.284;5.758;2023-08-31T15:32:37;17.70;99.90
43858;DHT22;29507;51.284;5.758;2023-08-31T15:35:03;17.70;99.90
43858;DHT22;29507;51.284;5.758;2023-08-31T15:37:29;17.70;99.90
43858;DHT22;29507;51.284;5.758;2023-08-31T15:39:58;17.80;99.90
43858;DHT22;29507;51.284;5.758;2023-08-31T15:42:25;17.90;99.90
43858;DHT22;29507;51.284;5.758;2023-08-31T15:44:51;18.10;99.90
43858;DHT22;29507;51.284;5.758;2023-08-31T15:47:18;18.20;99.90
43858;DHT22;29507;51.284;5.758;2023-08-31T15:49:44;18.40;99.90
43858;DHT22;29507;51.284;5.758;2023-08-31T15:52:10;18.60;99.90
43858;DHT22;29507;51.284;5.758;2023-08-31T15:54:35;18.70;99.90